This is the latest recevied weather packets stored in our database for station/object K7CTM. If no packets are shown the sender has not sent any weather packets the latest 10 day(s).
| Time | Temp. | Humidity | Pressure | Rain* | Wind** | Luminosity | Snow |
|---|---|---|---|---|---|---|---|
| 1777614787 | 4.44° C | 57% | 1030.4 hPa | 0 mm | - | 0 W/m² | - |
| 1777614482 | 4.44° C | 58% | 1030.4 hPa | 0 mm | - | 0 W/m² | - |
| 1777614179 | 4.44° C | 58% | 1030.3 hPa | 0 mm | - | 0 W/m² | - |
| 1777613879 | 5° C | 57% | 1030.6 hPa | 0 mm | - | 0 W/m² | - |
| 1777613576 | 5° C | 56% | 1030.4 hPa | 0 mm | - | 0 W/m² | - |
| 1777613272 | 5° C | 56% | 1030.4 hPa | 0 mm | - | 0 W/m² | - |
| 1777612969 | 5.56° C | 56% | 1030.4 hPa | 0 mm | - | 0 W/m² | - |
| 1777612665 | 5.56° C | 55% | 1030.3 hPa | 0 mm | - | 0 W/m² | - |
| 1777612362 | 6.11° C | 52% | 1030.3 hPa | 0 mm | - | 0 W/m² | - |
| 1777612062 | 5.56° C | 52% | 1030.4 hPa | 0 mm | - | 0 W/m² | - |
| 1777611757 | 7.22° C | 47% | 1030.4 hPa | 0 mm | - | 0 W/m² | - |
| 1777611454 | 6.67° C | 48% | 1030.5 hPa | 0 mm | - | 0 W/m² | - |
| 1777611151 | 7.22° C | 46% | 1030.3 hPa | 0 mm | - | 0 W/m² | - |
| 1777610847 | 7.22° C | 48% | 1030.3 hPa | 0 mm | - | 0 W/m² | - |
| 1777610542 | 7.22° C | 47% | 1030.4 hPa | 0 mm | - | 0 W/m² | - |
| 1777610237 | 7.78° C | 47% | 1030.2 hPa | 0 mm | - | 0 W/m² | - |
| 1777609934 | 7.22° C | 48% | 1030.3 hPa | 0 mm | - | 0 W/m² | - |
| 1777609631 | 7.22° C | 48% | 1030.4 hPa | 0 mm | - | 0 W/m² | - |
| 1777609328 | 7.78° C | 47% | 1030.5 hPa | 0 mm | - | 0 W/m² | - |
| 1777609025 | 7.78° C | 47% | 1030.4 hPa | 0 mm | - | 0 W/m² | - |
| 1777608722 | 7.78° C | 45% | 1030.3 hPa | 0 mm | - | 0 W/m² | - |
| 1777608419 | 8.33° C | 44% | 1030 hPa | 0 mm | - | 0 W/m² | - |
| 1777608117 | 8.89° C | 43% | 1030 hPa | 0 mm | - | 0 W/m² | - |
| 1777607813 | 8.89° C | 41% | 1030.2 hPa | 0 mm | - | 0 W/m² | - |
| 1777607509 | 9.44° C | 41% | 1030.2 hPa | 0 mm | - | 0 W/m² | - |
* Rain latest hour (hover to see other rain measurements)
** Current wind speed in m/s (hover to see current wind gust speed)